createdAt,value
2023-05-09T00:01:07.685Z,99.90
2023-05-09T00:03:36.092Z,99.90
2023-05-09T00:06:04.382Z,99.90
2023-05-09T00:08:33.997Z,99.90
2023-05-09T00:11:02.828Z,99.90
2023-05-09T00:13:31.071Z,99.90
2023-05-09T00:15:59.536Z,99.90
2023-05-09T00:18:28.344Z,99.90
2023-05-09T00:20:56.768Z,99.90
2023-05-09T00:23:24.910Z,99.90
2023-05-09T00:25:54.399Z,99.90
2023-05-09T00:28:22.506Z,99.90
2023-05-09T00:30:51.113Z,99.90
2023-05-09T00:33:19.275Z,1.00
2023-05-09T00:35:47.601Z,99.90
2023-05-09T00:38:15.734Z,1.00
2023-05-09T00:40:43.854Z,1.00
2023-05-09T00:43:13.332Z,1.00
2023-05-09T00:45:41.664Z,99.90
2023-05-09T00:48:10.196Z,5.00
2023-05-09T00:50:38.487Z,1.00
2023-05-09T00:53:06.745Z,1.00
2023-05-09T00:58:04.852Z,1.00
2023-05-09T01:00:34.431Z,1.00
2023-05-09T01:03:02.764Z,1.00
2023-05-09T01:05:37.153Z,1.00
2023-05-09T01:08:11.688Z,1.00
2023-05-09T01:10:48.762Z,1.00
2023-05-09T01:13:23.917Z,1.00
2023-05-09T01:15:59.657Z,1.00
2023-05-09T01:18:34.562Z,92.80
2023-05-09T01:21:07.716Z,99.90
2023-05-09T01:24:17.518Z,99.90
2023-05-09T01:26:48.058Z,99.90
2023-05-09T01:29:35.548Z,99.90
2023-05-09T01:32:07.301Z,99.90
2023-05-09T01:34:37.864Z,99.90
2023-05-09T01:37:08.343Z,45.80
2023-05-09T01:39:41.876Z,1.00
2023-05-09T01:42:12.631Z,1.00
2023-05-09T01:44:44.735Z,1.00
2023-05-09T01:47:13.384Z,1.00
2023-05-09T01:49:44.194Z,1.00
2023-05-09T01:52:15.858Z,54.40
2023-05-09T01:57:13.960Z,99.90
2023-05-09T01:59:45.808Z,99.90
2023-05-09T02:02:14.630Z,99.90
2023-05-09T02:04:44.225Z,99.90
2023-05-09T02:07:13.858Z,99.90
2023-05-09T02:09:42.166Z,99.90
2023-05-09T02:12:10.770Z,99.90
2023-05-09T02:14:38.851Z,1.00
2023-05-09T02:17:09.939Z,1.00
2023-05-09T02:19:38.035Z,99.90
2023-05-09T02:22:06.282Z,1.00
2023-05-09T02:24:35.431Z,1.00
2023-05-09T02:27:04.445Z,1.00
2023-05-09T02:29:40.493Z,1.00
2023-05-09T02:32:13.633Z,1.00
2023-05-09T02:37:11.933Z,11.30
2023-05-09T02:39:40.593Z,29.30
2023-05-09T02:42:11.270Z,33.60
2023-05-09T21:33:13.944Z,1.00
2023-05-09T21:35:43.338Z,99.90
2023-05-09T21:38:12.829Z,99.90
2023-05-09T21:40:41.710Z,99.90
2023-05-09T21:43:09.842Z,1.00
2023-05-09T21:45:37.916Z,1.00
2023-05-09T21:48:06.464Z,99.90
2023-05-09T21:50:34.544Z,1.00
2023-05-09T21:53:03.239Z,1.00
2023-05-09T21:55:32.700Z,53.60
2023-05-09T21:58:00.866Z,49.10
2023-05-09T22:00:29.080Z,73.60
2023-05-09T22:02:57.273Z,78.70
2023-05-09T22:05:25.648Z,99.90
2023-05-09T22:07:53.725Z,99.90
2023-05-09T22:10:21.827Z,99.90
2023-05-09T22:12:51.355Z,99.90
2023-05-09T22:15:19.458Z,99.90
2023-05-09T22:17:47.714Z,99.90
2023-05-09T22:20:16.373Z,99.90
2023-05-09T22:22:44.689Z,99.90
2023-05-09T22:25:12.865Z,99.90
2023-05-09T22:27:40.982Z,99.90
2023-05-09T22:30:12.393Z,99.90
2023-05-09T22:32:40.682Z,99.90
2023-05-09T22:35:09.696Z,99.90
2023-05-09T22:37:37.945Z,99.90
2023-05-09T22:40:07.348Z,99.90
2023-05-09T22:42:35.616Z,99.90
2023-05-09T22:45:03.757Z,99.90
2023-05-09T22:47:33.339Z,99.90
2023-05-09T22:50:01.525Z,99.90
2023-05-09T22:52:29.618Z,99.90
2023-05-09T22:54:57.740Z,99.90
2023-05-09T22:57:25.821Z,99.90
2023-05-09T22:59:54.375Z,99.90
2023-05-09T23:02:22.722Z,99.90
2023-05-09T23:04:52.280Z,99.90
2023-05-09T23:07:20.416Z,99.90
2023-05-09T23:09:48.481Z,99.90
2023-05-09T23:12:16.540Z,99.90
2023-05-09T23:14:44.626Z,99.90
2023-05-09T23:17:12.721Z,22.90
2023-05-09T23:19:40.834Z,1.00
2023-05-09T23:22:10.504Z,1.00
2023-05-09T23:24:38.615Z,1.00
2023-05-09T23:27:06.960Z,99.90
2023-05-09T23:29:35.057Z,1.00
2023-05-09T23:32:03.178Z,99.90
2023-05-09T23:34:31.882Z,99.90
2023-05-09T23:37:00.055Z,99.90
2023-05-09T23:39:29.637Z,1.00
2023-05-09T23:41:58.257Z,99.90
2023-05-09T23:44:26.677Z,94.90
2023-05-09T23:46:54.878Z,99.90
2023-05-09T23:49:23.065Z,99.90
2023-05-09T23:51:51.135Z,99.90
2023-05-09T23:54:21.376Z,99.90
2023-05-09T23:56:51.058Z,99.90
2023-05-09T23:59:19.173Z,99.90
